Time;durP1;ratioP1;P1;durP2;ratioP2;P2;SDS_P1;SDS_P2;PMS_P1;PMS_P2;Temp;Humidity;BMP_temperature;BMP_pressure;BME280_temperature;BME280_humidity;BME280_pressure;Samples;Min_cycle;Max_cycle;Signal;HPM_P1;HPM_P2
2022/04/07 00:00:47;;;;;;;2.50;2.30;;;14.20;60.60;;;;;;5072927;28;20468;-87
2022/04/07 00:03:14;;;;;;;4.67;2.53;;;14.10;61.60;;;;;;5088636;28;21336;-87
2022/04/07 00:05:41;;;;;;;4.40;2.33;;;14.10;61.10;;;;;;5070034;28;20589;-87
2022/04/07 00:08:08;;;;;;;2.87;2.40;;;14.20;60.90;;;;;;5063004;28;20500;-87
2022/04/07 00:10:35;;;;;;;2.43;2.23;;;14.20;61.20;;;;;;5067874;28;20447;-87
2022/04/07 00:13:02;;;;;;;2.47;1.97;;;14.10;60.80;;;;;;5087808;28;20464;-87
2022/04/07 00:15:31;;;;;;;3.20;2.50;;;14.10;60.70;;;;;;5084290;28;20455;-83
2022/04/07 00:17:58;;;;;;;3.50;3.10;;;14.10;60.60;;;;;;5058962;28;20974;-87
2022/04/07 00:20:26;;;;;;;4.23;3.17;;;14.20;61.00;;;;;;5088468;28;20432;-87
2022/04/07 00:22:54;;;;;;;2.63;2.43;;;14.10;60.90;;;;;;5086988;28;20478;-86
2022/04/07 00:25:21;;;;;;;2.57;2.37;;;14.30;60.40;;;;;;5077433;28;20537;-86
2022/04/07 00:27:48;;;;;;;2.67;2.30;;;14.30;60.00;;;;;;5087155;28;20891;-86
2022/04/07 00:30:19;;;;;;;2.20;2.00;;;14.40;59.90;;;;;;5088697;28;20474;-87
2022/04/07 00:32:49;;;;;;;3.50;2.40;;;14.20;60.50;;;;;;5088411;28;20435;-86
2022/04/07 00:35:16;;;;;;;3.67;2.13;;;14.20;59.90;;;;;;5085990;28;20439;-86
2022/04/07 00:37:44;;;;;;;3.03;2.37;;;14.30;59.80;;;;;;5071671;28;20680;-86
2022/04/07 00:40:12;;;;;;;2.73;2.53;;;14.30;59.30;;;;;;5073817;28;20812;-87
2022/04/07 00:42:45;;;;;;;3.70;2.13;;;14.60;59.20;;;;;;5085338;28;20446;-86
2022/04/07 00:45:12;;;;;;;3.30;2.40;;;14.60;58.50;;;;;;5088645;28;20451;-86
2022/04/07 00:47:39;;;;;;;3.10;2.10;;;14.70;58.50;;;;;;5085069;28;20987;-86
2022/04/07 00:50:08;;;;;;;2.43;2.23;;;14.70;58.00;;;;;;5094084;28;20454;-87
2022/04/07 00:52:36;;;;;;;2.17;1.97;;;14.60;58.00;;;;;;5087807;28;20733;-87
2022/04/07 00:55:05;;;;;;;4.83;2.20;;;14.40;58.60;;;;;;5084874;28;21071;-86
2022/04/07 00:57:32;;;;;;;3.60;2.33;;;14.40;58.30;;;;;;5054556;28;20487;-87
2022/04/07 00:59:59;;;;;;;2.40;2.13;;;14.20;58.70;;;;;;5086354;28;20447;-87
2022/04/07 01:02:26;;;;;;;2.43;2.23;;;14.10;59.10;;;;;;5074653;28;20993;-86
2022/04/07 01:04:53;;;;;;;2.17;2.07;;;14.20;58.90;;;;;;5069792;28;20505;-87
2022/04/07 01:07:22;;;;;;;2.37;2.17;;;14.20;58.50;;;;;;5090028;28;20467;-87
2022/04/07 01:09:49;;;;;;;2.20;2.00;;;14.30;58.40;;;;;;5086498;28;20459;-84
2022/04/07 01:12:16;;;;;;;2.43;2.00;;;14.10;58.50;;;;;;5091562;28;20505;-87
2022/04/07 01:14:59;;;;;;;3.00;2.10;;;14.20;58.20;;;;;;5088404;28;20958;-87
2022/04/07 01:17:26;;;;;;;2.40;1.90;;;14.10;57.70;;;;;;5091843;28;20434;-87
2022/04/07 01:19:53;;;;;;;2.20;2.10;;;14.10;58.00;;;;;;5096026;28;20464;-87
2022/04/07 01:22:22;;;;;;;3.60;2.33;;;14.10;57.60;;;;;;5076794;28;20434;-86
2022/04/07 01:24:51;;;;;;;2.37;2.10;;;13.90;58.10;;;;;;5086963;28;20467;-84
2022/04/07 01:27:19;;;;;;;5.00;2.50;;;13.90;58.20;;;;;;5088926;28;20472;-87
2022/04/07 01:29:46;;;;;;;2.00;1.90;;;13.90;58.20;;;;;;5075914;28;20552;-87
2022/04/07 01:32:19;;;;;;;2.27;2.07;;;13.90;57.80;;;;;;5091145;28;20481;-86
2022/04/07 01:34:45;;;;;;;3.30;2.33;;;13.70;58.40;;;;;;5089113;28;20466;-87
2022/04/07 01:37:13;;;;;;;3.10;2.73;;;13.70;58.50;;;;;;5064997;28;21006;-87
2022/04/07 01:39:42;;;;;;;2.13;1.93;;;13.90;58.00;;;;;;5080369;28;21030;-87
2022/04/07 01:42:12;;;;;;;2.47;1.90;;;13.90;58.00;;;;;;5091247;28;20871;-86
2022/04/07 01:44:45;;;;;;;2.57;2.23;;;13.90;57.90;;;;;;5088373;28;20553;-87
2022/04/07 01:47:15;;;;;;;2.17;1.97;;;13.90;57.80;;;;;;5089711;28;20459;-87
2022/04/07 01:49:45;;;;;;;1.90;1.50;;;14.00;58.00;;;;;;5087172;28;20462;-87
2022/04/07 01:52:13;;;;;;;2.33;1.93;;;14.10;57.50;;;;;;5092078;28;20465;-87
2022/04/07 01:54:43;;;;;;;3.53;1.93;;;14.20;57.40;;;;;;5063010;28;20464;-86
2022/04/07 01:57:12;;;;;;;3.90;2.20;;;14.00;57.10;;;;;;5097850;28;20542;-86
2022/04/07 01:59:39;;;;;;;2.90;1.90;;;14.10;57.50;;;;;;5087753;28;20979;-87
2022/04/07 02:02:06;;;;;;;1.83;1.67;;;13.90;57.10;;;;;;5064137;28;20505;-87
2022/04/07 02:04:33;;;;;;;1.83;1.70;;;14.10;57.20;;;;;;5087003;28;20459;-86
2022/04/07 02:07:00;;;;;;;2.70;1.60;;;14.00;57.40;;;;;;5091094;28;20483;-86
2022/04/07 02:09:27;;;;;;;1.57;1.47;;;14.00;57.30;;;;;;5087342;28;20442;-87
2022/04/07 02:11:54;;;;;;;2.00;1.80;;;14.10;57.00;;;;;;5057178;28;20485;-87
2022/04/07 02:14:22;;;;;;;4.43;1.70;;;14.00;57.00;;;;;;5089514;28;20540;-87
2022/04/07 02:16:49;;;;;;;2.80;1.70;;;14.20;56.70;;;;;;5080677;28;20457;-84
2022/04/07 02:19:16;;;;;;;2.27;1.87;;;14.30;56.40;;;;;;5089489;28;20459;-86
2022/04/07 02:21:43;;;;;;;1.90;1.70;;;14.50;55.90;;;;;;5088110;28;21003;-87
2022/04/07 02:24:10;;;;;;;2.27;1.87;;;14.60;55.60;;;;;;5087297;28;20478;-87
2022/04/07 02:26:37;;;;;;;1.47;1.37;;;14.60;55.40;;;;;;5103383;27;20538;-85
2022/04/07 02:29:05;;;;;;;2.50;1.80;;;14.70;55.80;;;;;;5089988;28;20507;-87
2022/04/07 02:31:33;;;;;;;3.30;1.60;;;14.70;55.30;;;;;;5090046;28;20451;-86
2022/04/07 02:34:00;;;;;;;3.10;1.80;;;14.80;55.10;;;;;;5074293;28;20472;-84
2022/04/07 02:36:27;;;;;;;1.90;1.77;;;14.80;55.00;;;;;;5087726;28;20530;-86
2022/04/07 02:38:54;;;;;;;2.70;2.00;;;14.30;55.90;;;;;;5087621;28;20544;-85
2022/04/07 02:41:21;;;;;;;2.67;1.57;;;14.20;56.30;;;;;;5088459;28;20448;-86
2022/04/07 02:43:48;;;;;;;2.50;2.00;;;14.40;56.00;;;;;;5087564;28;20479;-86
2022/04/07 02:46:15;;;;;;;1.73;1.60;;;14.50;55.60;;;;;;5090301;28;20463;-84
2022/04/07 02:48:43;;;;;;;4.00;2.10;;;14.50;55.60;;;;;;5087357;28;20581;-87
2022/04/07 02:51:10;;;;;;;3.43;1.73;;;14.10;56.50;;;;;;5087529;28;20457;-86
2022/04/07 02:53:37;;;;;;;1.97;1.87;;;14.00;56.50;;;;;;5086438;28;20462;-87
2022/04/07 02:56:04;;;;;;;2.23;1.80;;;13.70;57.20;;;;;;5087226;28;20475;-87
2022/04/07 02:58:31;;;;;;;2.10;1.97;;;13.80;57.40;;;;;;5087313;28;20454;-87
2022/04/07 03:00:59;;;;;;;2.93;1.80;;;13.90;57.20;;;;;;5085564;28;20482;-87
2022/04/07 03:03:26;;;;;;;2.57;1.60;;;13.80;57.60;;;;;;5097619;28;20471;-87
2022/04/07 03:05:54;;;;;;;1.93;1.83;;;13.90;57.80;;;;;;5089367;28;20450;-84
2022/04/07 03:08:21;;;;;;;1.80;1.37;;;13.80;57.90;;;;;;5088044;27;20989;-85
2022/04/07 03:10:48;;;;;;;2.00;1.67;;;13.90;58.00;;;;;;5083688;28;20448;-83
2022/04/07 03:13:15;;;;;;;1.60;1.47;;;14.00;57.60;;;;;;5087244;28;20463;-85
2022/04/07 03:15:42;;;;;;;1.70;1.60;;;13.80;57.70;;;;;;5089089;28;20497;-83
2022/04/07 03:18:09;;;;;;;2.17;1.90;;;13.70;58.10;;;;;;5085934;28;21330;-84
2022/04/07 03:20:35;;;;;;;4.00;1.90;;;13.80;57.60;;;;;;5088981;28;20446;-82
2022/04/07 03:23:04;;;;;;;2.27;2.07;;;13.70;57.70;;;;;;5089033;28;20512;-85
2022/04/07 03:25:31;;;;;;;1.63;1.47;;;13.70;58.00;;;;;;5084638;28;20450;-83
2022/04/07 03:27:58;;;;;;;2.40;1.80;;;13.80;57.70;;;;;;5088846;28;20474;-85
2022/04/07 03:30:25;;;;;;;2.40;1.50;;;13.90;57.30;;;;;;5096140;28;20447;-85
2022/04/07 03:32:52;;;;;;;2.30;1.87;;;13.80;57.30;;;;;;5087143;28;20468;-84
2022/04/07 03:35:19;;;;;;;2.60;1.83;;;13.80;58.40;;;;;;5086137;28;20531;-84
2022/04/07 03:37:46;;;;;;;1.80;1.70;;;13.60;58.00;;;;;;5088026;28;20451;-84
2022/04/07 03:40:14;;;;;;;1.77;1.67;;;13.70;57.80;;;;;;5086209;28;20480;-84
2022/04/07 03:42:41;;;;;;;1.90;1.80;;;13.60;57.60;;;;;;5096727;28;20447;-85
2022/04/07 03:45:08;;;;;;;2.87;2.57;;;13.70;58.00;;;;;;5086557;28;21086;-83
2022/04/07 03:47:35;;;;;;;2.30;2.03;;;13.70;58.20;;;;;;5088388;28;20509;-84
2022/04/07 03:50:02;;;;;;;4.00;3.70;;;13.70;57.80;;;;;;5074220;28;20451;-84
2022/04/07 03:52:29;;;;;;;16.43;11.40;;;13.70;58.20;;;;;;5087806;28;20524;-84
2022/04/07 03:54:56;;;;;;;2.40;2.20;;;13.70;58.20;;;;;;5086693;28;20465;-85
2022/04/07 03:57:24;;;;;;;10.50;9.50;;;13.80;58.20;;;;;;5089743;28;20967;-85
2022/04/07 03:59:52;;;;;;;6.97;6.37;;;13.80;58.50;;;;;;5086705;28;20967;-85
2022/04/07 04:02:19;;;;;;;5.03;4.63;;;13.70;58.90;;;;;;5088260;28;20451;-85
2022/04/07 04:04:46;;;;;;;66.90;39.23;;;13.70;59.20;;;;;;5087971;28;20502;-85
2022/04/07 04:07:12;;;;;;;4.90;3.73;;;13.50;59.10;;;;;;5075348;28;20880;-85
2022/04/07 04:09:40;;;;;;;3.40;2.90;;;13.70;59.00;;;;;;5078138;28;20887;-84
2022/04/07 04:12:08;;;;;;;4.53;4.20;;;13.70;59.40;;;;;;5088142;28;20443;-83
2022/04/07 04:14:36;;;;;;;2.57;2.37;;;13.70;59.50;;;;;;5086584;28;20515;-85
2022/04/07 04:17:03;;;;;;;1.83;1.73;;;13.90;59.50;;;;;;5088639;28;21011;-84
2022/04/07 04:19:30;;;;;;;2.00;1.90;;;13.90;59.20;;;;;;5086727;28;20451;-82
2022/04/07 04:21:57;;;;;;;2.30;2.10;;;13.80;59.40;;;;;;5088206;28;20514;-84
2022/04/07 04:24:24;;;;;;;2.30;2.17;;;13.80;59.90;;;;;;5091929;28;20463;-84
2022/04/07 04:26:50;;;;;;;2.93;2.40;;;13.90;59.40;;;;;;5092414;28;20563;-84
2022/04/07 04:29:17;;;;;;;2.63;2.33;;;14.00;59.30;;;;;;5091961;28;21019;-84
2022/04/07 04:31:46;;;;;;;3.00;2.90;;;14.00;59.20;;;;;;5087602;28;20453;-85
2022/04/07 04:34:12;;;;;;;3.90;3.20;;;13.80;59.40;;;;;;5084426;28;20480;-84
2022/04/07 04:36:39;;;;;;;3.60;3.30;;;13.60;60.10;;;;;;5069626;28;20459;-84
2022/04/07 04:39:06;;;;;;;3.10;2.10;;;13.70;59.90;;;;;;5085655;28;20440;-84
2022/04/07 04:41:33;;;;;;;3.67;2.00;;;13.80;60.10;;;;;;5089036;28;20450;-84
2022/04/07 04:44:00;;;;;;;3.00;2.70;;;13.90;59.30;;;;;;5079719;28;20532;-83
2022/04/07 04:46:27;;;;;;;2.50;2.13;;;14.10;58.90;;;;;;5089451;28;20456;-84
2022/04/07 04:48:56;;;;;;;2.37;2.27;;;14.00;58.50;;;;;;5090290;28;20479;-85
2022/04/07 04:51:23;;;;;;;2.33;2.03;;;14.20;58.60;;;;;;5090553;28;20842;-83
2022/04/07 04:53:50;;;;;;;1.93;1.83;;;13.90;58.30;;;;;;5088333;28;20551;-84
2022/04/07 04:56:17;;;;;;;3.30;2.20;;;13.90;59.00;;;;;;5090904;28;20450;-85
2022/04/07 04:58:43;;;;;;;2.83;2.60;;;13.80;58.80;;;;;;5091252;28;20448;-84
2022/04/07 05:01:10;;;;;;;2.20;2.10;;;13.70;58.60;;;;;;5092273;28;20479;-84
2022/04/07 05:03:37;;;;;;;2.07;1.97;;;13.70;59.00;;;;;;5089841;28;20544;-83
2022/04/07 05:06:05;;;;;;;2.00;1.90;;;13.80;58.90;;;;;;5092288;28;20576;-84
2022/04/07 05:08:32;;;;;;;3.20;2.87;;;14.00;58.20;;;;;;5090004;28;20478;-84
2022/04/07 05:10:59;;;;;;;109.73;57.03;;;14.20;57.80;;;;;;5089503;27;20869;-84
2022/04/07 05:13:26;;;;;;;7.50;6.70;;;14.20;56.90;;;;;;5091985;28;20528;-84
2022/04/07 05:15:53;;;;;;;3.57;3.27;;;14.20;57.50;;;;;;5088171;28;20773;-84
2022/04/07 05:18:20;;;;;;;1.80;1.70;;;14.40;57.10;;;;;;5078093;28;20439;-85
2022/04/07 05:20:47;;;;;;;2.03;1.93;;;14.50;56.20;;;;;;5057051;28;20448;-84
2022/04/07 05:23:16;;;;;;;5.07;1.73;;;14.00;56.90;;;;;;5090450;28;20459;-84
2022/04/07 05:25:42;;;;;;;1.77;1.67;;;13.70;58.10;;;;;;5088196;28;20545;-84
2022/04/07 05:28:09;;;;;;;2.33;2.10;;;13.40;58.60;;;;;;5092607;28;20486;-83
2022/04/07 05:30:36;;;;;;;1.70;1.60;;;13.20;59.30;;;;;;5091349;28;20499;-83
2022/04/07 05:33:03;;;;;;;2.07;1.97;;;13.20;59.60;;;;;;5090339;28;20451;-83
2022/04/07 05:35:30;;;;;;;1.87;1.77;;;13.30;59.60;;;;;;5090764;28;20477;-81
2022/04/07 05:37:58;;;;;;;1.87;1.70;;;13.20;59.90;;;;;;5074985;28;20450;-84
2022/04/07 05:40:27;;;;;;;2.03;1.83;;;13.20;60.10;;;;;;5090387;28;20981;-82
2022/04/07 05:42:54;;;;;;;2.10;1.90;;;13.30;59.90;;;;;;5091966;28;20899;-82
2022/04/07 05:45:21;;;;;;;2.00;1.80;;;13.50;59.50;;;;;;5091230;28;20455;-84
2022/04/07 05:47:48;;;;;;;3.77;3.30;;;13.60;58.70;;;;;;5093324;28;20723;-84
2022/04/07 05:50:15;;;;;;;1.83;1.73;;;13.70;59.00;;;;;;5073865;28;20472;-84
2022/04/07 05:52:42;;;;;;;1.90;1.80;;;13.80;59.30;;;;;;5074011;28;20509;-84
2022/04/07 05:55:09;;;;;;;2.57;2.37;;;13.60;59.80;;;;;;5091661;28;20550;-84
2022/04/07 05:57:38;;;;;;;19.40;13.83;;;13.50;60.60;;;;;;5096555;28;20916;-85
2022/04/07 06:00:07;;;;;;;3.97;2.90;;;13.20;61.40;;;;;;5090548;28;20453;-84
2022/04/07 06:02:34;;;;;;;2.13;2.03;;;13.40;62.00;;;;;;5098076;28;20465;-84
2022/04/07 06:05:01;;;;;;;2.30;2.20;;;13.40;61.10;;;;;;5089996;28;20472;-84
2022/04/07 06:07:28;;;;;;;4.13;3.83;;;13.40;61.40;;;;;;5078516;28;20452;-84
2022/04/07 06:09:55;;;;;;;2.03;1.87;;;13.50;61.10;;;;;;5087772;28;20475;-84
2022/04/07 06:12:22;;;;;;;2.10;1.90;;;13.60;60.80;;;;;;5090937;28;20473;-84
2022/04/07 06:14:50;;;;;;;2.60;2.40;;;13.80;61.00;;;;;;5089530;28;20823;-85
2022/04/07 06:17:17;;;;;;;1.73;1.63;;;13.80;60.00;;;;;;5089180;28;20451;-85
2022/04/07 06:19:44;;;;;;;1.97;1.87;;;13.70;59.30;;;;;;5089579;28;20455;-84
2022/04/07 06:22:12;;;;;;;2.50;2.13;;;13.20;60.60;;;;;;5089868;28;20449;-84
2022/04/07 06:24:39;;;;;;;2.57;2.37;;;13.30;61.20;;;;;;5086625;28;20467;-84
2022/04/07 06:27:06;;;;;;;3.10;2.80;;;13.40;60.80;;;;;;5089343;28;20454;-84
2022/04/07 06:29:33;;;;;;;3.90;3.60;;;13.30;61.10;;;;;;5096452;28;20479;-84
2022/04/07 06:32:01;;;;;;;2.77;2.57;;;13.30;60.00;;;;;;5096278;28;20458;-84
2022/04/07 06:34:28;;;;;;;2.20;2.10;;;13.20;60.00;;;;;;5090994;28;20977;-84
2022/04/07 06:36:55;;;;;;;3.27;3.07;;;13.40;60.30;;;;;;5087953;28;20455;-84
2022/04/07 06:39:22;;;;;;;3.80;2.80;;;13.70;60.00;;;;;;5088993;27;20458;-84
2022/04/07 06:41:48;;;;;;;2.90;2.53;;;13.80;58.80;;;;;;5089847;28;20485;-81
2022/04/07 06:44:15;;;;;;;9.33;1.87;;;14.00;58.50;;;;;;5088359;28;20468;-85
2022/04/07 06:46:42;;;;;;;2.77;2.57;;;14.00;58.70;;;;;;5087307;28;20547;-85
2022/04/07 06:49:10;;;;;;;1.67;1.57;;;14.00;58.20;;;;;;5089537;28;20482;-85
2022/04/07 06:51:37;;;;;;;1.40;1.30;;;14.00;58.00;;;;;;5091626;28;20459;-85
2022/04/07 06:54:04;;;;;;;1.33;1.23;;;13.90;58.30;;;;;;5073304;28;20451;-83
2022/04/07 06:56:31;;;;;;;1.70;1.60;;;14.00;58.10;;;;;;5092918;28;20499;-82
2022/04/07 06:58:59;;;;;;;1.57;1.47;;;14.00;57.90;;;;;;5088377;28;20471;-85
2022/04/07 07:01:26;;;;;;;2.90;1.80;;;14.20;57.90;;;;;;5091903;28;20534;-84
2022/04/07 07:03:53;;;;;;;2.10;1.70;;;14.00;57.70;;;;;;5088811;28;20475;-84
2022/04/07 07:06:21;;;;;;;1.50;1.40;;;13.80;57.50;;;;;;5092128;28;20808;-85
2022/04/07 07:08:48;;;;;;;1.43;1.13;;;13.80;57.80;;;;;;5089790;28;20562;-86
2022/04/07 07:11:15;;;;;;;2.30;1.20;;;13.80;57.80;;;;;;5073121;28;20705;-84
2022/04/07 07:13:42;;;;;;;3.40;1.30;;;13.70;57.80;;;;;;5059748;28;20478;-84
2022/04/07 07:16:09;;;;;;;1.43;1.13;;;14.00;58.10;;;;;;5091523;28;20823;-83
2022/04/07 07:18:38;;;;;;;1.23;1.13;;;14.10;57.20;;;;;;5099142;28;20486;-84
2022/04/07 07:21:05;;;;;;;1.20;1.10;;;13.90;56.80;;;;;;5078022;28;20444;-84
2022/04/07 07:23:33;;;;;;;1.37;1.10;;;13.90;57.90;;;;;;5088873;28;21104;-88
2022/04/07 07:26:00;;;;;;;4.27;3.87;;;13.90;57.50;;;;;;5086292;28;20452;-89
2022/04/07 07:28:27;;;;;;;2.43;1.37;;;14.00;57.70;;;;;;5077588;28;20462;-85
2022/04/07 07:30:54;;;;;;;1.30;0.90;;;14.10;58.00;;;;;;5079545;28;20472;-83
2022/04/07 07:33:21;;;;;;;0.97;0.90;;;14.00;57.80;;;;;;5091531;28;20472;-84
2022/04/07 07:35:48;;;;;;;1.30;1.03;;;14.10;57.30;;;;;;5079490;28;21246;-84
2022/04/07 07:38:15;;;;;;;1.30;1.10;;;14.10;57.30;;;;;;5091395;28;21200;-85
2022/04/07 07:40:44;;;;;;;0.90;0.80;;;14.00;57.80;;;;;;5072217;28;20638;-85
2022/04/07 07:43:10;;;;;;;1.83;1.00;;;13.90;59.20;;;;;;5088577;28;21266;-85
2022/04/07 07:45:37;;;;;;;1.37;0.90;;;13.80;59.80;;;;;;5087065;28;20954;-85
2022/04/07 07:48:05;;;;;;;1.27;1.17;;;13.90;60.00;;;;;;5096612;28;20993;-85
2022/04/07 07:50:32;;;;;;;1.33;1.23;;;13.90;59.60;;;;;;5088782;28;20485;-87
2022/04/07 07:52:59;;;;;;;1.20;1.10;;;13.80;60.10;;;;;;5069920;28;20954;-85
2022/04/07 07:55:26;;;;;;;1.23;1.13;;;13.80;60.70;;;;;;5088841;28;20818;-86
2022/04/07 07:57:54;;;;;;;3.87;3.60;;;13.90;60.90;;;;;;5086186;28;20711;-85
2022/04/07 08:00:23;;;;;;;2.13;1.50;;;14.00;60.50;;;;;;5071080;28;20442;-85
2022/04/07 08:02:50;;;;;;;1.43;1.33;;;14.10;59.90;;;;;;5088759;28;20450;-85
2022/04/07 08:05:17;;;;;;;1.13;1.03;;;13.70;59.30;;;;;;5087884;28;20481;-85
2022/04/07 08:07:44;;;;;;;1.00;0.80;;;13.80;61.20;;;;;;5085057;28;20460;-85
2022/04/07 08:10:11;;;;;;;3.10;1.67;;;13.70;60.40;;;;;;5085946;28;21090;-83
2022/04/07 08:12:39;;;;;;;2.10;1.90;;;13.50;61.30;;;;;;5086994;28;20491;-83
2022/04/07 08:15:09;;;;;;;1.00;0.90;;;13.50;61.20;;;;;;5085282;28;20478;-85
2022/04/07 08:17:37;;;;;;;1.00;0.90;;;13.70;60.70;;;;;;5078721;28;21024;-84
2022/04/07 08:20:07;;;;;;;0.90;0.80;;;13.80;59.50;;;;;;5087663;28;20459;-85
2022/04/07 08:22:34;;;;;;;1.20;1.10;;;13.90;59.70;;;;;;5078964;28;20457;-87
2022/04/07 08:25:01;;;;;;;1.10;1.00;;;13.80;58.90;;;;;;5073757;28;21044;-86
2022/04/07 08:27:28;;;;;;;1.30;1.20;;;13.90;59.50;;;;;;5099485;28;20459;-86
2022/04/07 08:29:55;;;;;;;0.97;0.80;;;14.00;59.50;;;;;;5097925;27;20478;-85
2022/04/07 08:32:23;;;;;;;0.90;0.80;;;14.10;59.50;;;;;;5090515;28;20451;-86
2022/04/07 08:34:50;;;;;;;2.93;0.80;;;14.20;58.90;;;;;;5088185;28;20475;-85
2022/04/07 08:37:17;;;;;;;1.43;0.80;;;14.20;58.80;;;;;;5091024;28;20470;-84
2022/04/07 08:39:44;;;;;;;1.10;1.00;;;14.20;58.70;;;;;;5091465;28;20533;-84
2022/04/07 08:42:11;;;;;;;0.70;0.70;;;14.10;58.50;;;;;;5091526;28;20451;-84
2022/04/07 08:44:39;;;;;;;0.90;0.80;;;14.20;57.90;;;;;;5090728;28;20472;-85
2022/04/07 08:47:06;;;;;;;0.70;0.60;;;14.00;59.80;;;;;;5092752;28;20460;-85
2022/04/07 08:49:38;;;;;;;1.20;0.80;;;13.80;59.10;;;;;;5089937;28;20532;-85
2022/04/07 08:52:08;;;;;;;0.73;0.67;;;14.00;59.40;;;;;;5090983;28;20469;-84
2022/04/07 08:54:34;;;;;;;1.30;0.80;;;14.00;59.00;;;;;;5107410;27;21001;-85
2022/04/07 08:57:03;;;;;;;1.00;0.90;;;14.10;58.30;;;;;;5096452;28;20451;-84
2022/04/07 08:59:30;;;;;;;2.13;0.80;;;13.90;59.50;;;;;;5090934;28;20928;-85
2022/04/07 09:02:02;;;;;;;3.23;1.40;;;14.00;60.80;;;;;;5083779;28;20952;-84
2022/04/07 09:04:31;;;;;;;1.57;0.93;;;14.00;61.40;;;;;;5092884;28;20505;-84
2022/04/07 09:06:59;;;;;;;1.10;1.00;;;13.90;60.60;;;;;;5092743;28;20487;-85
2022/04/07 09:09:26;;;;;;;0.80;0.80;;;14.00;62.00;;;;;;5089435;27;21183;-84
2022/04/07 09:11:56;;;;;;;1.10;0.80;;;14.20;61.50;;;;;;5090353;28;20503;-84
2022/04/07 09:14:24;;;;;;;0.80;0.80;;;14.30;60.40;;;;;;5090705;28;20468;-83
2022/04/07 09:16:54;;;;;;;0.90;0.80;;;14.20;60.00;;;;;;5088686;28;20712;-84
2022/04/07 09:19:22;;;;;;;1.00;0.90;;;14.10;60.70;;;;;;5090617;28;20447;-84
2022/04/07 09:22:03;;;;;;;2.50;0.93;;;14.30;60.00;;;;;;5091299;28;20451;-82
2022/04/07 09:24:34;;;;;;;1.13;0.90;;;14.40;59.60;;;;;;5090519;28;20475;-83
2022/04/07 09:27:03;;;;;;;1.20;0.93;;;14.50;58.80;;;;;;5088291;28;21017;-84
2022/04/07 09:29:38;;;;;;;0.90;0.80;;;14.60;58.70;;;;;;5081489;28;20471;-84
2022/04/07 09:32:18;;;;;;;1.97;0.80;;;14.60;58.40;;;;;;5088853;28;20458;-84
2022/04/07 09:34:45;;;;;;;3.00;0.93;;;14.60;58.60;;;;;;5091409;28;20463;-84
2022/04/07 09:37:13;;;;;;;14.57;10.73;;;14.40;58.20;;;;;;5091260;28;20486;-84
2022/04/07 09:39:42;;;;;;;4.33;3.60;;;14.30;58.40;;;;;;5091076;28;20530;-84
2022/04/07 09:42:22;;;;;;;5.87;1.03;;;14.50;59.30;;;;;;5089545;28;20809;-84
2022/04/07 09:44:55;;;;;;;1.50;1.40;;;14.60;58.60;;;;;;5076293;28;21008;-84
2022/04/07 09:47:22;;;;;;;2.17;2.00;;;14.80;57.60;;;;;;5089959;27;20551;-85
2022/04/07 09:49:50;;;;;;;12.53;6.60;;;14.80;57.60;;;;;;5090227;28;20497;-82
2022/04/07 09:52:22;;;;;;;3.07;2.20;;;14.70;57.00;;;;;;5088413;28;20447;-85
2022/04/07 09:54:52;;;;;;;2.90;1.80;;;14.90;57.70;;;;;;5073330;28;20804;-82
2022/04/07 09:57:20;;;;;;;4.03;3.63;;;15.00;57.60;;;;;;5089577;28;20469;-85
2022/04/07 09:59:48;;;;;;;1.60;1.50;;;15.00;57.40;;;;;;5069763;28;20447;-85
2022/04/07 10:02:17;;;;;;;4.33;1.40;;;14.90;57.30;;;;;;5086125;28;20901;-86
2022/04/07 10:04:46;;;;;;;1.10;1.00;;;14.70;57.40;;;;;;5072374;28;20465;-85
2022/04/07 10:07:15;;;;;;;5.10;1.20;;;14.60;57.80;;;;;;5062801;28;20469;-85
2022/04/07 10:09:42;;;;;;;0.80;0.80;;;14.80;57.20;;;;;;5090569;27;20468;-85
2022/04/07 10:12:12;;;;;;;1.77;0.80;;;14.80;57.20;;;;;;5092355;28;20456;-85
2022/04/07 10:14:40;;;;;;;0.93;0.67;;;14.60;57.50;;;;;;5090794;28;20507;-84
2022/04/07 10:17:11;;;;;;;1.30;1.00;;;14.70;57.10;;;;;;5089711;28;20523;-84
2022/04/07 10:19:44;;;;;;;1.57;0.77;;;14.80;57.50;;;;;;5080536;28;21469;-84
2022/04/07 10:22:40;;;;;;;1.20;0.60;;;15.00;57.40;;;;;;5098871;28;20443;-84
2022/04/07 10:25:08;;;;;;;1.20;1.00;;;14.90;56.20;;;;;;5071157;28;20478;-84
2022/04/07 10:27:43;;;;;;;0.90;0.90;;;14.80;57.10;;;;;;5091481;28;20805;-86
2022/04/07 10:30:11;;;;;;;1.00;0.90;;;14.70;57.10;;;;;;5090217;28;20965;-85
2022/04/07 10:32:40;;;;;;;1.10;1.00;;;14.80;57.60;;;;;;5091112;28;21450;-85
2022/04/07 10:35:08;;;;;;;1.77;1.40;;;14.70;57.60;;;;;;5089515;28;20474;-83
2022/04/07 10:37:45;;;;;;;1.00;0.90;;;14.50;58.20;;;;;;5096898;28;20492;-83
2022/04/07 10:40:34;;;;;;;1.00;0.77;;;14.60;58.60;;;;;;5088805;28;20504;-84
2022/04/07 10:43:18;;;;;;;0.70;0.70;;;14.90;57.90;;;;;;5088796;28;20454;-83
2022/04/07 10:45:47;;;;;;;0.80;0.70;;;14.90;57.60;;;;;;5086957;28;20452;-84
2022/04/07 10:48:24;;;;;;;1.00;0.90;;;14.70;58.00;;;;;;5071248;28;20440;-83
2022/04/07 10:50:53;;;;;;;0.90;0.70;;;14.70;59.80;;;;;;5089401;27;20486;-82
2022/04/07 10:53:22;;;;;;;0.90;0.80;;;14.60;60.10;;;;;;5089379;28;21043;-84
2022/04/07 10:56:06;;;;;;;2.57;0.97;;;14.50;60.30;;;;;;5088703;28;20449;-81
2022/04/07 10:58:52;;;;;;;0.90;0.70;;;14.50;61.10;;;;;;5085701;28;20455;-84
2022/04/07 11:02:04;;;;;;;0.80;0.70;;;14.70;60.50;;;;;;5079747;28;20440;-83
2022/04/07 11:04:41;;;;;;;1.40;1.10;;;14.50;60.70;;;;;;5086858;28;20475;-83
2022/04/07 11:07:16;;;;;;;1.27;1.17;;;14.60;61.00;;;;;;5087648;28;21594;-84
2022/04/07 11:09:44;;;;;;;1.40;1.20;;;14.40;60.40;;;;;;5105018;27;20449;-83
2022/04/07 11:12:12;;;;;;;0.80;0.80;;;14.50;60.50;;;;;;5080777;28;20466;-84
2022/04/07 11:14:41;;;;;;;2.70;1.77;;;14.40;60.70;;;;;;5096357;28;20463;-83
2022/04/07 11:17:10;;;;;;;1.20;1.10;;;14.40;60.60;;;;;;5087654;28;20512;-84
2022/04/07 11:19:47;;;;;;;1.70;1.60;;;14.50;60.40;;;;;;5087087;28;20455;-83
2022/04/07 11:22:15;;;;;;;1.60;1.03;;;14.70;60.20;;;;;;5089854;28;20736;-84
2022/04/07 11:24:47;;;;;;;1.60;1.30;;;15.00;59.70;;;;;;5088855;28;21207;-83
2022/04/07 11:27:42;;;;;;;2.50;2.30;;;14.90;59.50;;;;;;5088021;28;20466;-83
2022/04/07 11:30:12;;;;;;;2.13;1.10;;;15.20;58.80;;;;;;5080335;28;20478;-84
2022/04/07 11:32:41;;;;;;;2.20;0.97;;;15.00;59.00;;;;;;5088242;28;20446;-84
2022/04/07 11:35:14;;;;;;;1.20;1.03;;;15.00;59.00;;;;;;5094954;28;20466;-84
2022/04/07 11:37:43;;;;;;;1.00;0.90;;;15.00;58.20;;;;;;5089035;28;20561;-83
2022/04/07 11:40:10;;;;;;;2.30;0.80;;;15.10;58.30;;;;;;5088774;28;20943;-83
2022/04/07 11:42:40;;;;;;;1.20;1.10;;;15.10;58.90;;;;;;5089904;28;20448;-85
2022/04/07 11:45:08;;;;;;;32.47;21.47;;;15.00;58.80;;;;;;5088722;28;20532;-83
2022/04/07 11:47:37;;;;;;;6.00;5.40;;;15.40;58.70;;;;;;5089217;28;20448;-84
2022/04/07 11:50:05;;;;;;;1.40;1.30;;;15.10;58.80;;;;;;5089044;28;20483;-84
2022/04/07 11:52:34;;;;;;;1.00;0.80;;;15.10;58.70;;;;;;5087907;28;20451;-80
2022/04/07 11:55:03;;;;;;;2.07;0.90;;;15.40;59.00;;;;;;5087122;28;20972;-84
2022/04/07 11:57:32;;;;;;;0.70;0.60;;;15.30;58.80;;;;;;5089236;28;20517;-83
2022/04/07 12:00:00;;;;;;;1.60;1.20;;;15.30;59.20;;;;;;5087305;28;20459;-83
2022/04/07 12:02:28;;;;;;;2.20;1.00;;;15.60;58.60;;;;;;5089378;28;20490;-83
2022/04/07 12:04:59;;;;;;;4.00;3.50;;;15.80;58.80;;;;;;5087438;28;20470;-83
2022/04/07 12:07:26;;;;;;;1.43;1.30;;;16.00;57.40;;;;;;5087496;28;20439;-84
2022/04/07 12:09:56;;;;;;;2.40;1.87;;;16.30;57.20;;;;;;5072590;28;20483;-83
2022/04/07 12:12:24;;;;;;;1.57;1.17;;;15.80;57.80;;;;;;5070739;28;21171;-86
2022/04/07 12:14:52;;;;;;;1.63;0.80;;;15.70;57.70;;;;;;5084897;28;20985;-84
2022/04/07 12:17:19;;;;;;;0.80;0.80;;;15.60;58.10;;;;;;5097931;28;20451;-85
2022/04/07 12:19:46;;;;;;;1.40;1.10;;;15.70;58.70;;;;;;5087897;28;20475;-86
2022/04/07 12:22:16;;;;;;;1.33;1.10;;;16.00;59.30;;;;;;5088163;28;20458;-86
2022/04/07 12:24:59;;;;;;;0.87;0.87;;;16.10;58.00;;;;;;5087462;28;20469;-84
2022/04/07 12:27:27;;;;;;;1.67;1.20;;;16.10;57.70;;;;;;5088348;28;20570;-84
2022/04/07 12:29:54;;;;;;;3.97;2.60;;;16.30;57.20;;;;;;5085992;28;20464;-86
2022/04/07 12:32:21;;;;;;;2.07;1.87;;;16.10;56.90;;;;;;5086319;28;21085;-84
2022/04/07 12:34:55;;;;;;;1.53;0.90;;;16.10;57.10;;;;;;5090488;28;21103;-85
2022/04/07 12:37:33;;;;;;;31.97;16.57;;;16.10;57.00;;;;;;5095749;28;20446;-85
2022/04/07 12:40:00;;;;;;;21.47;10.27;;;16.10;57.30;;;;;;5076329;28;20453;-85
2022/04/07 12:42:27;;;;;;;1.43;1.30;;;16.20;56.80;;;;;;5089306;28;20451;-85
2022/04/07 12:45:05;;;;;;;4.70;3.53;;;16.40;56.90;;;;;;5068093;28;20480;-84
2022/04/07 12:47:32;;;;;;;1.30;1.10;;;16.70;56.50;;;;;;5087090;28;20457;-83
2022/04/07 12:50:01;;;;;;;3.00;2.30;;;16.80;55.30;;;;;;5067678;28;20444;-87
2022/04/07 12:52:41;;;;;;;1.07;0.97;;;17.10;55.20;;;;;;5068672;28;20566;-84